createdAt,value
2022-08-23T00:02:28.686Z,101145.09
2022-08-23T00:05:09.158Z,101146.16
2022-08-23T00:07:38.838Z,101144.38
2022-08-23T00:10:08.956Z,101133.66
2022-08-23T00:12:36.854Z,101129.34
2022-08-23T00:15:08.840Z,101133.19
2022-08-23T00:17:37.448Z,101132.63
2022-08-23T00:20:11.603Z,101131.09
2022-08-23T00:22:40.971Z,101124.16
2022-08-23T00:25:11.662Z,101127.09
2022-08-23T00:27:40.137Z,101118.41
2022-08-23T00:30:12.383Z,101110.50
2022-08-23T00:32:41.669Z,101106.25
2022-08-23T00:35:11.724Z,101113.00
2022-08-23T00:37:39.857Z,101111.53
2022-08-23T00:40:10.597Z,101116.28
2022-08-23T00:43:01.756Z,101120.03
2022-08-23T00:45:55.445Z,101123.06
2022-08-23T00:48:23.618Z,101123.34
2022-08-23T00:50:57.439Z,101119.09
2022-08-23T00:53:28.696Z,101121.13
2022-08-23T00:56:01.074Z,101123.09
2022-08-23T00:58:30.506Z,101126.97
2022-08-23T01:01:02.013Z,101128.06
2022-08-23T01:03:38.712Z,101122.69
2022-08-23T01:06:12.718Z,101131.06
2022-08-23T01:08:45.557Z,101132.13
2022-08-23T01:11:17.903Z,101128.50
2022-08-23T01:13:49.890Z,101128.56
2022-08-23T01:16:25.323Z,101128.81
2022-08-23T01:18:54.779Z,101126.25
2022-08-23T01:21:28.480Z,101137.16
2022-08-23T01:24:01.648Z,101137.28
2022-08-23T01:26:31.943Z,101135.63
2022-08-23T01:28:59.712Z,101134.00
2022-08-23T01:31:28.044Z,101142.31
2022-08-23T01:34:00.002Z,101137.22
2022-08-23T01:36:28.709Z,101132.81
2022-08-23T01:38:57.926Z,101143.75
2022-08-23T01:41:26.192Z,101137.53
2022-08-23T01:43:54.233Z,101140.47
2022-08-23T01:46:24.984Z,101141.47
2022-08-23T01:48:55.202Z,101145.22
2022-08-23T01:51:23.951Z,101149.03
2022-08-23T01:53:51.883Z,101153.66
2022-08-23T01:56:28.112Z,101139.41
2022-08-23T01:59:08.139Z,101141.72
2022-08-23T02:01:36.362Z,101132.03
2022-08-23T02:04:05.447Z,101134.97
2022-08-23T02:06:33.833Z,101143.97
2022-08-23T02:09:03.671Z,101143.97
2022-08-23T02:11:36.197Z,101144.06
2022-08-23T02:14:05.528Z,101133.19
2022-08-23T02:16:36.123Z,101142.44
2022-08-23T02:19:06.610Z,101139.06
2022-08-23T02:21:36.690Z,101140.94
2022-08-23T02:24:06.954Z,101145.56
2022-08-23T02:26:38.118Z,101150.09
2022-08-23T02:29:06.562Z,101151.03
2022-08-23T02:31:35.294Z,101150.28
2022-08-23T02:34:03.458Z,101157.53
2022-08-23T02:36:31.516Z,101152.31
2022-08-23T02:38:59.327Z,101156.41
2022-08-23T02:41:27.654Z,101152.91
2022-08-23T02:43:56.762Z,101158.41
2022-08-23T02:46:24.563Z,101155.22
2022-08-23T02:48:52.967Z,101150.13
2022-08-23T02:51:21.185Z,101151.06
2022-08-23T02:53:48.982Z,101161.84
2022-08-23T02:56:21.907Z,101153.78
2022-08-23T02:58:54.496Z,101143.94
2022-08-23T03:01:27.528Z,101161.25
2022-08-23T03:03:56.217Z,101158.56
2022-08-23T03:06:26.306Z,101157.78
2022-08-23T03:08:55.238Z,101155.06
2022-08-23T03:11:23.612Z,101159.63
2022-08-23T03:13:52.345Z,101157.34
2022-08-23T03:16:20.694Z,101160.13
2022-08-23T03:18:50.567Z,101156.59
2022-08-23T03:21:19.031Z,101161.19
2022-08-23T03:23:47.093Z,101162.13
2022-08-23T03:26:16.675Z,101163.03
2022-08-23T03:28:45.378Z,101162.19
2022-08-23T03:31:13.925Z,101166.81
2022-08-23T03:33:42.158Z,101166.03
2022-08-23T03:36:13.098Z,101166.09
2022-08-23T03:38:42.366Z,101168.09
2022-08-23T03:41:10.653Z,101164.59
2022-08-23T03:43:39.802Z,101175.47
2022-08-23T03:46:08.663Z,101174.66
2022-08-23T03:48:37.576Z,101178.44
2022-08-23T03:51:05.607Z,101181.34
2022-08-23T03:53:34.699Z,101177.84
2022-08-23T03:56:02.515Z,101175.22
2022-08-23T03:58:30.236Z,101172.56
2022-08-23T04:00:58.484Z,101179.81
2022-08-23T04:03:26.712Z,101184.47
2022-08-23T04:05:54.529Z,101185.41
2022-08-23T04:08:28.064Z,101194.56
2022-08-23T04:11:03.035Z,101200.03
2022-08-23T04:13:31.026Z,101196.44
2022-08-23T04:15:59.241Z,101202.84
2022-08-23T04:18:26.963Z,101203.81
2022-08-23T04:20:54.775Z,101214.69
2022-08-23T04:23:22.565Z,101219.41
2022-08-23T04:25:50.452Z,101212.22
2022-08-23T04:28:19.586Z,101214.97
2022-08-23T04:30:47.321Z,101219.53
2022-08-23T04:33:17.852Z,101211.34
2022-08-23T04:35:46.333Z,101224.00
2022-08-23T04:38:18.322Z,101222.19
2022-08-23T04:41:11.378Z,101215.91
2022-08-23T04:43:40.945Z,101223.16
2022-08-23T04:46:10.178Z,101225.81
2022-08-23T04:48:38.179Z,101229.31
2022-08-23T04:51:06.021Z,101228.34
2022-08-23T04:53:35.314Z,101235.59
2022-08-23T04:56:04.161Z,101236.44
2022-08-23T04:58:32.749Z,101234.53
2022-08-23T05:01:04.871Z,101242.47
2022-08-23T05:03:32.998Z,101241.56
2022-08-23T05:06:01.192Z,101248.69
2022-08-23T05:08:29.017Z,101250.38
2022-08-23T05:10:56.782Z,101246.59
2022-08-23T05:13:24.569Z,101246.53
2022-08-23T05:15:52.605Z,101249.97
2022-08-23T05:18:21.708Z,101256.91
2022-08-23T05:20:52.474Z,101253.19
2022-08-23T05:23:20.262Z,101247.63
2022-08-23T05:25:53.138Z,101259.19
2022-08-23T05:28:23.302Z,101256.34
2022-08-23T05:31:00.620Z,101257.94
2022-08-23T05:33:32.582Z,101256.75
2022-08-23T05:36:01.786Z,101260.19
2022-08-23T05:38:30.017Z,101258.19
2022-08-23T05:41:01.968Z,101263.34
2022-08-23T05:43:33.358Z,101268.53
2022-08-23T05:46:03.767Z,101259.06
2022-08-23T05:48:33.948Z,101261.31
2022-08-23T05:51:10.916Z,101274.44
2022-08-23T05:53:39.278Z,101278.56
2022-08-23T05:56:15.372Z,101277.34
2022-08-23T05:58:43.984Z,101278.72
2022-08-23T06:01:13.449Z,101282.84
2022-08-23T06:03:42.716Z,101283.41
2022-08-23T06:06:12.886Z,101285.75
2022-08-23T06:08:41.428Z,101284.50
2022-08-23T06:11:12.242Z,101284.94
2022-08-23T06:13:41.879Z,101285.50
2022-08-23T06:16:14.956Z,101290.53
2022-08-23T06:18:44.961Z,101285.69
2022-08-23T06:21:15.765Z,101290.81
2022-08-23T06:23:44.359Z,101290.44
2022-08-23T06:26:13.477Z,101294.63
2022-08-23T06:28:51.005Z,101293.38
2022-08-23T06:31:40.793Z,101295.75
2022-08-23T06:34:12.598Z,101293.53
2022-08-23T06:36:40.905Z,101292.28
2022-08-23T06:39:11.670Z,101292.78
2022-08-23T06:41:39.731Z,101293.31
2022-08-23T06:44:08.166Z,101291.09
2022-08-23T06:46:38.447Z,101292.50
2022-08-23T06:49:09.341Z,101293.88
2022-08-23T06:51:39.580Z,101298.94
2022-08-23T06:54:11.015Z,101295.97
2022-08-23T06:56:41.228Z,101298.31
2022-08-23T06:59:09.725Z,101300.72
2022-08-23T07:01:46.227Z,101301.22
2022-08-23T07:04:18.722Z,101301.78
2022-08-23T07:06:47.445Z,101305.88
2022-08-23T07:09:16.130Z,101307.22
2022-08-23T07:11:43.890Z,101309.56
2022-08-23T07:14:14.064Z,101302.75
2022-08-23T07:16:44.570Z,101309.47
2022-08-23T07:19:13.315Z,101315.38
2022-08-23T07:21:43.423Z,101306.94
2022-08-23T07:24:14.723Z,101316.66
2022-08-23T07:26:45.344Z,101318.06
2022-08-23T07:29:14.338Z,101310.53
2022-08-23T07:31:44.607Z,101323.03
2022-08-23T07:34:12.854Z,101320.13
2022-08-23T07:36:44.454Z,101315.50
2022-08-23T07:39:12.478Z,101315.22
2022-08-23T07:41:41.543Z,101314.00
2022-08-23T07:44:11.718Z,101319.88
2022-08-23T07:46:43.480Z,101319.44
2022-08-23T07:49:13.189Z,101326.13
2022-08-23T07:51:43.962Z,101325.66
2022-08-23T07:54:12.950Z,101321.72
2022-08-23T07:56:41.545Z,101326.84
2022-08-23T07:59:09.967Z,101329.41
2022-08-23T08:01:38.018Z,101334.66
2022-08-23T08:04:07.103Z,101325.16
2022-08-23T08:06:39.317Z,101332.03
2022-08-23T08:09:09.838Z,101332.47
2022-08-23T08:11:37.878Z,101333.88
2022-08-23T08:14:09.077Z,101337.16
2022-08-23T08:16:38.727Z,101337.63
2022-08-23T08:19:09.154Z,101334.38
2022-08-23T08:21:38.848Z,101334.78
2022-08-23T08:24:13.000Z,101335.28
2022-08-23T08:26:41.092Z,101326.81
2022-08-23T08:29:11.916Z,101336.47
2022-08-23T08:31:40.805Z,101323.53
2022-08-23T08:34:09.106Z,101326.06
2022-08-23T08:36:39.160Z,101331.25
2022-08-23T08:39:10.447Z,101329.06
2022-08-23T08:42:04.093Z,101331.59
2022-08-23T08:44:38.960Z,101330.13
2022-08-23T08:47:11.543Z,101337.88
2022-08-23T08:49:45.029Z,101332.69
2022-08-23T08:52:18.646Z,101342.34
2022-08-23T08:54:49.771Z,101334.94
2022-08-23T08:57:27.800Z,101340.88
2022-08-23T09:00:02.632Z,101340.41
2022-08-23T09:02:34.993Z,101343.66
2022-08-23T09:05:06.962Z,101339.53
2022-08-23T09:07:45.515Z,101342.09
2022-08-23T09:10:54.470Z,101337.09
2022-08-23T09:13:46.595Z,101342.28
2022-08-23T09:16:28.803Z,101340.91
2022-08-23T09:18:56.927Z,101337.75
2022-08-23T09:21:28.523Z,101342.06
2022-08-23T09:24:00.983Z,101342.44
2022-08-23T09:26:31.614Z,101338.22
2022-08-23T09:29:03.110Z,101341.28
2022-08-23T09:31:40.450Z,101349.88
2022-08-23T09:34:08.677Z,101338.69
2022-08-23T09:36:38.754Z,101347.31
2022-08-23T09:39:08.438Z,101339.69
2022-08-23T09:41:38.947Z,101340.22
2022-08-23T09:44:16.255Z,101340.00
2022-08-23T09:46:45.951Z,101345.84
2022-08-23T09:49:26.209Z,101339.75
2022-08-23T09:51:56.565Z,101340.97
2022-08-23T09:54:30.041Z,101343.84
2022-08-23T09:57:00.897Z,101336.03
2022-08-23T09:59:39.368Z,101340.25
2022-08-23T10:02:17.045Z,101329.84
2022-08-23T10:04:47.199Z,101334.03
2022-08-23T10:07:27.136Z,101330.81
2022-08-23T10:09:55.229Z,101327.75
2022-08-23T10:12:23.835Z,101328.97
2022-08-23T10:14:51.573Z,101324.81
2022-08-23T10:17:34.242Z,101324.34
2022-08-23T10:20:17.063Z,101323.66
2022-08-23T10:22:50.502Z,101319.59
2022-08-23T10:25:37.248Z,101322.69
2022-08-23T10:28:42.178Z,101320.50
2022-08-23T10:31:23.048Z,101321.25
2022-08-23T10:34:01.715Z,101322.22
2022-08-23T10:36:34.884Z,101317.16
2022-08-23T10:39:08.092Z,101322.06
2022-08-23T10:41:53.477Z,101318.09
2022-08-23T10:44:29.184Z,101314.25
2022-08-23T10:47:12.078Z,101306.59
2022-08-23T10:49:42.835Z,101309.75
2022-08-23T10:52:16.368Z,101308.28
2022-08-23T10:54:59.410Z,101309.38
2022-08-23T10:57:33.995Z,101298.66
2022-08-23T11:00:03.857Z,101307.53
2022-08-23T11:02:38.207Z,101305.47
2022-08-23T11:05:18.738Z,101297.75
2022-08-23T11:07:59.118Z,101298.50
2022-08-23T11:10:32.821Z,101296.16
2022-08-23T11:13:03.815Z,101295.56
2022-08-23T11:15:44.805Z,101293.09
2022-08-23T11:18:39.346Z,101290.63
2022-08-23T11:21:11.863Z,101286.63
2022-08-23T11:23:55.467Z,101286.91
2022-08-23T11:27:06.659Z,101282.03
2022-08-23T11:29:40.522Z,101283.44
2022-08-23T11:32:47.120Z,101280.69
2022-08-23T11:35:43.222Z,101289.41
2022-08-23T11:38:12.075Z,101277.63
2022-08-23T11:41:06.361Z,101280.25
2022-08-23T11:43:37.718Z,101287.19
2022-08-23T11:46:32.328Z,101278.97
2022-08-23T11:49:29.137Z,101283.63
2022-08-23T11:52:07.011Z,101286.25
2022-08-23T11:54:48.302Z,101283.84
2022-08-23T11:57:33.543Z,101289.47
2022-08-23T12:00:17.424Z,101281.47
2022-08-23T12:03:02.004Z,101270.72
2022-08-23T12:06:03.096Z,101279.13
2022-08-23T12:08:55.790Z,101283.59
2022-08-23T12:11:25.776Z,101284.00
2022-08-23T12:14:37.278Z,101275.34
2022-08-23T12:17:07.242Z,101276.00
2022-08-23T12:19:42.445Z,101278.50
2022-08-23T12:22:15.585Z,101280.00
2022-08-23T12:24:52.367Z,101277.97
2022-08-23T12:27:28.191Z,101272.97
2022-08-23T12:30:02.828Z,101270.72
2022-08-23T12:32:38.872Z,101272.19
2022-08-23T12:35:30.130Z,101271.06
2022-08-23T12:38:21.832Z,101265.16
2022-08-23T12:40:54.470Z,101282.19
2022-08-23T12:43:25.201Z,101276.28
2022-08-23T12:45:57.020Z,101273.03
2022-08-23T12:48:26.674Z,101266.16
2022-08-23T12:50:56.577Z,101273.78
2022-08-23T12:53:29.152Z,101264.75
2022-08-23T12:56:05.175Z,101265.13
2022-08-23T12:58:35.716Z,101264.47
2022-08-23T13:01:07.433Z,101266.91
2022-08-23T13:03:39.776Z,101270.28
2022-08-23T13:06:10.690Z,101267.00
2022-08-23T13:08:41.926Z,101261.34
2022-08-23T13:11:12.782Z,101260.19
2022-08-23T13:13:43.050Z,101268.72
2022-08-23T13:16:42.256Z,101263.84
2022-08-23T13:19:18.100Z,101262.09
2022-08-23T13:21:46.211Z,101266.31
2022-08-23T13:24:38.404Z,101264.72
2022-08-23T13:27:21.906Z,101265.78
2022-08-23T13:29:55.622Z,101270.44
2022-08-23T13:32:33.523Z,101273.22
2022-08-23T13:35:26.768Z,101276.31
2022-08-23T13:37:58.021Z,101278.22
2022-08-23T13:40:27.498Z,101270.31
2022-08-23T13:43:00.615Z,101276.09
2022-08-23T13:45:31.264Z,101274.00
2022-08-23T13:48:03.192Z,101271.25
2022-08-23T13:50:33.094Z,101267.31
2022-08-23T13:53:14.323Z,101277.50
2022-08-23T13:55:48.129Z,101280.31
2022-08-23T13:58:28.720Z,101276.22
2022-08-23T14:00:59.005Z,101273.09
2022-08-23T14:03:28.632Z,101263.84
2022-08-23T14:05:56.422Z,101265.09
2022-08-23T14:08:24.717Z,101268.72
2022-08-23T14:10:52.903Z,101270.19
2022-08-23T14:13:25.449Z,101272.88
2022-08-23T14:15:56.358Z,101283.00
2022-08-23T14:18:24.710Z,101277.53
2022-08-23T14:20:53.230Z,101276.31
2022-08-23T14:23:21.005Z,101277.84
2022-08-23T14:25:50.252Z,101274.72
2022-08-23T14:28:18.826Z,101276.88
2022-08-23T14:30:48.231Z,101275.16
2022-08-23T14:33:16.055Z,101276.88
2022-08-23T14:35:45.019Z,101267.09
2022-08-23T14:38:15.138Z,101277.41
2022-08-23T14:40:51.262Z,101276.63
2022-08-23T14:43:19.137Z,101276.44
2022-08-23T14:45:48.665Z,101275.66
2022-08-23T14:48:16.464Z,101270.06
2022-08-23T14:50:45.138Z,101274.59
2022-08-23T14:53:14.983Z,101274.88
2022-08-23T14:55:42.743Z,101277.00
2022-08-23T14:58:10.492Z,101273.44
2022-08-23T15:00:38.925Z,101264.16
2022-08-23T15:03:10.394Z,101259.88
2022-08-23T15:05:38.390Z,101272.75
2022-08-23T15:08:06.167Z,101267.00
2022-08-23T15:10:50.092Z,101273.31
2022-08-23T15:13:28.425Z,101267.13
2022-08-23T15:16:01.460Z,101265.50
2022-08-23T15:18:31.782Z,101257.91
2022-08-23T15:20:59.956Z,101261.41
2022-08-23T15:23:27.854Z,101260.41
2022-08-23T15:25:57.774Z,101263.66
2022-08-23T15:28:26.153Z,101259.00
2022-08-23T15:30:54.074Z,101262.75
2022-08-23T15:33:26.941Z,101264.66
2022-08-23T15:35:57.141Z,101263.78
2022-08-23T15:38:26.322Z,101260.13
2022-08-23T15:40:55.703Z,101254.59
2022-08-23T15:43:33.892Z,101255.03
2022-08-23T15:46:06.054Z,101258.63
2022-08-23T15:48:37.903Z,101252.13
2022-08-23T15:51:07.242Z,101255.44
2022-08-23T15:53:35.126Z,101256.69
2022-08-23T15:56:05.719Z,101247.06
2022-08-23T15:58:33.741Z,101250.50
2022-08-23T16:01:01.594Z,101251.78
2022-08-23T16:03:29.528Z,101253.44
2022-08-23T16:05:57.815Z,101252.97
2022-08-23T16:08:29.594Z,101252.47
2022-08-23T16:10:57.431Z,101255.47
2022-08-23T16:13:26.573Z,101259.25
2022-08-23T16:15:54.506Z,101253.88
2022-08-23T16:18:22.342Z,101249.00
2022-08-23T16:20:50.266Z,101250.38
2022-08-23T16:23:22.323Z,101256.03
2022-08-23T16:25:51.632Z,101253.41
2022-08-23T16:28:19.430Z,101250.28
2022-08-23T16:30:47.209Z,101249.69
2022-08-23T16:33:15.152Z,101243.53
2022-08-23T16:35:42.870Z,101252.97
2022-08-23T16:38:10.628Z,101240.56
2022-08-23T16:40:38.352Z,101243.31
2022-08-23T16:43:07.386Z,101245.19
2022-08-23T16:45:35.108Z,101244.31
2022-08-23T16:48:02.927Z,101249.06
2022-08-23T16:50:32.851Z,101244.84
2022-08-23T16:53:05.019Z,101250.72
2022-08-23T16:55:35.133Z,101257.47
2022-08-23T16:58:03.215Z,101251.31
2022-08-23T17:00:32.822Z,101249.94
2022-08-23T17:03:01.273Z,101259.34
2022-08-23T17:05:29.752Z,101246.69
2022-08-23T17:07:57.534Z,101247.72
2022-08-23T17:10:25.484Z,101252.31
2022-08-23T17:12:57.052Z,101252.31
2022-08-23T17:15:27.368Z,101252.72
2022-08-23T17:17:57.133Z,101256.72
2022-08-23T17:20:27.160Z,101253.47
2022-08-23T17:22:55.633Z,101260.34
2022-08-23T17:25:24.179Z,101256.09
2022-08-23T17:27:54.311Z,101264.72
2022-08-23T17:30:24.905Z,101263.09
2022-08-23T17:32:54.426Z,101260.72
2022-08-23T17:35:26.719Z,101264.59
2022-08-23T17:37:55.022Z,101259.22
2022-08-23T17:40:31.596Z,101274.22
2022-08-23T17:43:00.966Z,101270.16
2022-08-23T17:45:29.691Z,101272.38
2022-08-23T17:47:57.490Z,101279.00
2022-08-23T17:50:26.724Z,101280.25
2022-08-23T17:52:54.992Z,101281.63
2022-08-23T17:55:22.880Z,101286.47
2022-08-23T17:57:52.369Z,101291.44
2022-08-23T18:00:24.006Z,101286.44
2022-08-23T18:02:51.790Z,101300.19
2022-08-23T18:05:19.843Z,101291.31
2022-08-23T18:07:48.914Z,101294.28
2022-08-23T18:10:16.661Z,101301.03
2022-08-23T18:12:44.483Z,101301.47
2022-08-23T18:15:12.828Z,101300.97
2022-08-23T18:17:41.164Z,101306.78
2022-08-23T18:20:13.752Z,101299.78
2022-08-23T18:22:41.681Z,101301.88
2022-08-23T18:25:13.334Z,101305.09
2022-08-23T18:27:59.045Z,101312.91
2022-08-23T18:30:27.038Z,101315.13
2022-08-23T18:32:54.899Z,101319.31
2022-08-23T18:35:25.766Z,101310.69
2022-08-23T18:37:54.360Z,101321.25
2022-08-23T18:40:23.649Z,101323.78
2022-08-23T18:42:51.961Z,101329.59
2022-08-23T18:45:20.079Z,101329.25
2022-08-23T18:47:49.778Z,101338.94
2022-08-23T18:50:18.826Z,101338.53
2022-08-23T18:52:46.654Z,101345.31
2022-08-23T18:55:16.096Z,101342.13
2022-08-23T18:57:45.210Z,101340.72
2022-08-23T19:00:14.025Z,101341.16
2022-08-23T19:02:41.834Z,101356.19
2022-08-23T19:05:10.208Z,101360.13
2022-08-23T19:07:37.906Z,101361.56
2022-08-23T19:10:06.475Z,101357.44
2022-08-23T19:12:34.318Z,101367.84
2022-08-23T19:15:03.413Z,101368.28
2022-08-23T19:17:31.116Z,101371.34
2022-08-23T19:19:59.653Z,101367.28
2022-08-23T19:22:27.523Z,101376.78
2022-08-23T19:24:55.862Z,101378.97
2022-08-23T19:27:23.538Z,101373.91
2022-08-23T19:29:51.362Z,101375.19
2022-08-23T19:32:20.663Z,101374.50
2022-08-23T19:34:48.583Z,101374.84
2022-08-23T19:37:20.672Z,101380.63
2022-08-23T19:39:52.076Z,101379.16
2022-08-23T19:42:20.830Z,101383.16
2022-08-23T19:44:49.550Z,101384.44
2022-08-23T19:47:19.841Z,101382.13
2022-08-23T19:49:51.032Z,101382.31
2022-08-23T19:52:18.833Z,101389.00
2022-08-23T19:54:46.573Z,101390.06
2022-08-23T19:57:14.566Z,101391.34
2022-08-23T19:59:42.567Z,101396.22
2022-08-23T20:02:13.028Z,101397.50
2022-08-23T20:04:41.007Z,101395.06
2022-08-23T20:07:10.111Z,101401.72
2022-08-23T20:09:37.985Z,101401.16
2022-08-23T20:12:06.104Z,101401.31
2022-08-23T20:14:34.241Z,101403.66
2022-08-23T20:17:04.410Z,101403.16
2022-08-23T20:19:32.286Z,101407.84
2022-08-23T20:22:20.268Z,101403.56
2022-08-23T20:24:52.204Z,101407.56
2022-08-23T20:27:25.365Z,101413.31
2022-08-23T20:29:58.904Z,101413.47
2022-08-23T20:32:26.843Z,101413.88
2022-08-23T20:34:54.658Z,101416.81
2022-08-23T20:37:22.609Z,101409.94
2022-08-23T20:39:52.270Z,101412.97
2022-08-23T20:42:20.325Z,101418.53
2022-08-23T20:44:48.278Z,101418.59
2022-08-23T20:47:16.100Z,101418.69
2022-08-23T20:49:44.153Z,101414.31
2022-08-23T20:52:11.983Z,101415.38
2022-08-23T20:54:40.156Z,101415.47
2022-08-23T20:57:09.283Z,101409.31
2022-08-23T20:59:40.942Z,101408.59
2022-08-23T21:02:11.705Z,101416.00
2022-08-23T21:04:40.251Z,101427.13
2022-08-23T21:07:09.277Z,101421.13
2022-08-23T21:09:37.162Z,101425.09
2022-08-23T21:12:06.023Z,101424.41
2022-08-23T21:14:35.279Z,101424.78
2022-08-23T21:17:03.074Z,101431.22
2022-08-23T21:19:31.308Z,101426.91
2022-08-23T21:21:59.383Z,101418.03
2022-08-23T21:24:27.255Z,101425.50
2022-08-23T21:26:54.969Z,101425.69
2022-08-23T21:29:22.847Z,101428.69
2022-08-23T21:31:51.971Z,101435.31
2022-08-23T21:34:19.822Z,101435.59
2022-08-23T21:36:47.684Z,101433.91
2022-08-23T21:39:15.407Z,101427.19
2022-08-23T21:41:44.768Z,101430.06
2022-08-23T21:44:15.273Z,101432.38
2022-08-23T21:46:43.273Z,101429.72
2022-08-23T21:49:12.996Z,101432.50
2022-08-23T21:51:41.498Z,101433.59
2022-08-23T21:54:10.652Z,101441.06
2022-08-23T21:56:39.476Z,101423.97
2022-08-23T21:59:10.013Z,101432.50
2022-08-23T22:01:38.054Z,101433.63
2022-08-23T22:04:07.941Z,101424.75
2022-08-23T22:06:38.682Z,101442.16
2022-08-23T22:09:08.269Z,101437.94
2022-08-23T22:11:40.579Z,101436.25
2022-08-23T22:14:08.803Z,101434.81
2022-08-23T22:16:37.226Z,101434.13
2022-08-23T22:19:05.411Z,101442.56
2022-08-23T22:21:35.409Z,101445.44
2022-08-23T22:24:05.652Z,101452.84
2022-08-23T22:26:33.503Z,101447.59
2022-08-23T22:29:01.313Z,101449.50
2022-08-23T22:31:29.412Z,101445.25
2022-08-23T22:33:57.414Z,101450.88
2022-08-23T22:36:25.501Z,101446.47
2022-08-23T22:38:53.356Z,101446.56
2022-08-23T22:41:27.129Z,101449.53
2022-08-23T22:43:54.951Z,101451.38
2022-08-23T22:46:23.629Z,101458.75
2022-08-23T22:48:51.471Z,101459.72
2022-08-23T22:51:21.080Z,101459.81
2022-08-23T22:53:51.312Z,101455.41
2022-08-23T22:56:21.703Z,101449.47
2022-08-23T22:58:52.733Z,101460.38
2022-08-23T23:01:23.217Z,101461.31
2022-08-23T23:03:52.925Z,101456.19
2022-08-23T23:06:21.288Z,101456.19
2022-08-23T23:08:49.448Z,101465.47
2022-08-23T23:11:18.351Z,101458.34
2022-08-23T23:13:46.300Z,101462.25
2022-08-23T23:16:18.308Z,101460.59
2022-08-23T23:19:08.054Z,101457.06
2022-08-23T23:21:36.303Z,101452.56
2022-08-23T23:24:04.896Z,101455.44
2022-08-23T23:26:32.832Z,101453.66
2022-08-23T23:29:00.730Z,101456.56
2022-08-23T23:31:29.995Z,101453.81
2022-08-23T23:33:58.243Z,101458.50
2022-08-23T23:36:26.035Z,101456.72
2022-08-23T23:38:54.142Z,101455.97
2022-08-23T23:41:22.031Z,101451.63
2022-08-23T23:43:50.062Z,101457.16
2022-08-23T23:46:20.969Z,101462.75
2022-08-23T23:48:51.258Z,101461.16
2022-08-23T23:51:22.227Z,101457.59
2022-08-23T23:53:50.330Z,101464.06
2022-08-23T23:56:19.830Z,101454.31
2022-08-23T23:58:48.779Z,101455.59
